Lennoxtown, United Kingdom
Current Conditions -  °F | °C
As of 2:20 PM on Saturday 25 Oct 2014 (Local Time) from EGPF Reporting Station
Light Rain Light Rain  
Wind Chill: 54°   Ceiling: 2500
Heat Index: 54°   Visibility: 6mi
Dew Point: 46°   Wind: 24mph
Humidity: 77%   Direction: 220°SW
Pressure: 29.68"   Gusts: NA
Location:  55.97°N, 4.2°W
Report Text: EGPF 251320Z 22021KT 9999 6000W -RA BKN025CB BKN040 12/08 Q1005
Loading
Personal Weather Stations






























Interactive Weather Map
Tropical Storm Tracking
New forecast layout! Learn more

10-Day Weather Forecast

Advertisements
Track Severe Weather on mobile